createdAt,value
2022-11-30T00:03:22.716Z,8.71
2022-11-30T00:08:24.386Z,8.66
2022-11-30T00:13:26.151Z,8.58
2022-11-30T00:18:27.783Z,8.57
2022-11-30T00:23:37.068Z,8.59
2022-11-30T00:28:39.573Z,8.57
2022-11-30T00:33:41.779Z,8.56
2022-11-30T00:38:43.932Z,8.53
2022-11-30T00:43:46.049Z,8.51
2022-11-30T00:48:47.659Z,8.47
2022-11-30T00:53:49.277Z,8.43
2022-11-30T00:58:51.264Z,8.41
2022-11-30T01:03:53.036Z,8.25
2022-11-30T01:08:54.715Z,8.34
2022-11-30T01:13:58.087Z,8.33
2022-11-30T01:19:00.420Z,8.32
2022-11-30T01:24:02.165Z,8.35
2022-11-30T01:29:03.707Z,8.22
2022-11-30T01:34:05.296Z,8.25
2022-11-30T01:39:09.026Z,8.29
2022-11-30T01:44:19.756Z,8.24
2022-11-30T01:49:41.779Z,8.29
2022-11-30T01:54:46.575Z,8.22
2022-11-30T01:59:52.010Z,8.29
2022-11-30T02:04:53.887Z,8.24
2022-11-30T02:09:55.431Z,8.25
2022-11-30T02:15:02.911Z,8.25
2022-11-30T02:20:22.581Z,8.25
2022-11-30T02:26:15.457Z,8.27
2022-11-30T02:31:23.475Z,8.34
2022-11-30T02:36:27.291Z,8.25
2022-11-30T02:41:38.062Z,8.30
2022-11-30T02:46:53.751Z,8.36
2022-11-30T02:51:56.331Z,8.40
2022-11-30T02:56:57.900Z,8.33
2022-11-30T03:01:59.443Z,8.36
2022-11-30T03:07:01.060Z,8.41
2022-11-30T03:12:02.590Z,8.41
2022-11-30T03:17:04.162Z,8.38
2022-11-30T03:22:05.683Z,8.43
2022-11-30T03:27:07.290Z,8.46
2022-11-30T03:32:08.832Z,8.48
2022-11-30T03:37:10.358Z,8.53
2022-11-30T03:42:11.869Z,8.48
2022-11-30T03:47:13.390Z,8.51
2022-11-30T03:52:14.886Z,8.51
2022-11-30T03:57:16.400Z,8.57
2022-11-30T04:02:18.082Z,8.57
2022-11-30T04:07:19.783Z,8.54
2022-11-30T04:12:21.390Z,8.56
2022-11-30T04:17:22.893Z,8.51
2022-11-30T04:22:24.403Z,8.51
2022-11-30T04:27:28.325Z,8.48
2022-11-30T04:32:29.932Z,8.52
2022-11-30T04:37:31.439Z,8.51
2022-11-30T04:42:32.969Z,8.50
2022-11-30T04:47:34.547Z,8.54
2022-11-30T04:52:39.003Z,8.55
2022-11-30T04:57:40.523Z,8.56
2022-11-30T05:02:44.489Z,8.58
2022-11-30T05:07:57.093Z,8.59
2022-11-30T05:12:58.857Z,8.56
2022-11-30T05:18:01.496Z,8.63
2022-11-30T05:23:05.131Z,8.59
2022-11-30T05:28:40.147Z,8.54
2022-11-30T05:33:41.904Z,8.60
2022-11-30T05:38:44.496Z,8.58
2022-11-30T05:43:45.985Z,8.57
2022-11-30T05:48:47.483Z,8.61
2022-11-30T05:53:49.009Z,8.57
2022-11-30T05:58:50.555Z,8.61
2022-11-30T06:03:52.451Z,8.60
2022-11-30T06:08:54.164Z,8.64
2022-11-30T06:13:55.644Z,8.60
2022-11-30T06:18:57.178Z,8.70
2022-11-30T06:23:58.721Z,8.62
2022-11-30T06:29:00.281Z,8.60
2022-11-30T06:34:01.804Z,8.54
2022-11-30T06:39:03.912Z,8.49
2022-11-30T06:44:09.649Z,8.54
2022-11-30T06:49:11.160Z,8.53
2022-11-30T06:54:12.680Z,8.53
2022-11-30T06:59:15.321Z,8.42
2022-11-30T07:04:17.150Z,8.42
2022-11-30T07:09:18.693Z,8.32
2022-11-30T07:14:20.260Z,8.38
2022-11-30T07:19:21.969Z,8.35
2022-11-30T07:24:23.511Z,8.29
2022-11-30T07:29:25.034Z,8.23
2022-11-30T07:34:26.622Z,8.13
2022-11-30T07:39:28.200Z,8.23
2022-11-30T07:44:29.819Z,8.22
2022-11-30T07:49:31.331Z,8.20
2022-11-30T07:54:32.852Z,8.10
2022-11-30T07:59:34.417Z,8.08
2022-11-30T08:04:36.022Z,8.18
2022-11-30T08:09:37.562Z,8.13
2022-11-30T08:15:03.638Z,8.17
2022-11-30T08:20:00.672Z,8.25
2022-11-30T08:25:02.216Z,8.29
2022-11-30T08:30:04.436Z,8.37
2022-11-30T08:35:06.289Z,8.40
2022-11-30T08:40:08.174Z,8.28
2022-11-30T08:45:10.139Z,8.33
2022-11-30T08:50:11.784Z,8.30
2022-11-30T08:55:13.368Z,8.24
2022-11-30T09:00:15.447Z,8.35
2022-11-30T09:05:17.097Z,8.40
2022-11-30T09:10:19.270Z,8.41
2022-11-30T09:15:20.795Z,8.38
2022-11-30T09:20:22.384Z,8.61
2022-11-30T09:25:23.931Z,8.55
2022-11-30T09:30:25.572Z,8.51
2022-11-30T09:35:27.225Z,8.53
2022-11-30T09:40:34.043Z,8.55
2022-11-30T09:45:37.435Z,8.47
2022-11-30T09:50:42.906Z,8.62
2022-11-30T09:55:44.751Z,8.59
2022-11-30T10:00:46.398Z,8.61
2022-11-30T10:05:51.720Z,8.67
2022-11-30T10:11:12.262Z,8.65
2022-11-30T10:16:23.243Z,8.78
2022-11-30T10:21:35.580Z,8.75
2022-11-30T10:26:37.439Z,8.61
2022-11-30T10:31:41.612Z,8.54
2022-11-30T10:36:48.307Z,8.55
2022-11-30T10:41:56.661Z,8.51
2022-11-30T10:47:01.185Z,8.63
2022-11-30T10:52:07.416Z,8.67
2022-11-30T10:57:09.653Z,8.69
2022-11-30T11:02:45.248Z,8.62
2022-11-30T11:07:51.795Z,8.61
2022-11-30T11:12:55.024Z,8.60
2022-11-30T11:18:12.009Z,8.62
2022-11-30T11:23:27.521Z,8.54
2022-11-30T11:28:29.497Z,8.53
2022-11-30T11:33:31.061Z,8.43
2022-11-30T11:38:47.085Z,8.52
2022-11-30T11:44:10.326Z,8.61
2022-11-30T11:49:25.758Z,8.74
2022-11-30T11:54:53.294Z,8.70
2022-11-30T12:00:16.800Z,8.57
2022-11-30T12:05:26.815Z,8.42
2022-11-30T12:16:07.256Z,8.62
2022-11-30T12:21:57.053Z,8.67
2022-11-30T12:27:12.333Z,8.70
2022-11-30T12:32:27.475Z,8.66
2022-11-30T12:37:47.637Z,8.74
2022-11-30T12:42:59.114Z,8.61
2022-11-30T12:48:06.631Z,8.65
2022-11-30T12:53:47.308Z,8.67
2022-11-30T12:59:26.140Z,8.58
2022-11-30T13:04:30.289Z,8.62
2022-11-30T13:09:37.509Z,8.62
2022-11-30T13:14:39.449Z,8.54
2022-11-30T13:20:03.804Z,8.59
2022-11-30T13:25:17.262Z,8.60
2022-11-30T13:30:22.474Z,8.57
2022-11-30T13:35:30.062Z,8.53
2022-11-30T13:40:32.133Z,8.52
2022-11-30T13:45:35.226Z,8.48
2022-11-30T13:50:39.324Z,8.44
2022-11-30T13:56:00.956Z,8.44
2022-11-30T14:01:26.161Z,8.42
2022-11-30T14:06:39.602Z,8.42
2022-11-30T14:11:43.093Z,8.46
2022-11-30T14:16:46.529Z,8.49
2022-11-30T14:21:48.185Z,8.42
2022-11-30T14:26:51.555Z,8.40
2022-11-30T14:32:16.739Z,8.44
2022-11-30T14:37:26.909Z,8.42
2022-11-30T14:42:30.426Z,8.35
2022-11-30T14:47:34.124Z,8.31
2022-11-30T14:52:47.651Z,8.34
2022-11-30T14:57:56.186Z,8.34
2022-11-30T15:02:57.719Z,8.25
2022-11-30T15:07:59.956Z,8.29
2022-11-30T15:13:02.579Z,8.29
2022-11-30T15:18:19.512Z,8.29
2022-11-30T15:23:21.544Z,8.29
2022-11-30T15:28:44.181Z,8.26
2022-11-30T15:33:50.089Z,8.24
2022-11-30T15:38:51.848Z,8.22
2022-11-30T15:43:56.708Z,8.23
2022-11-30T15:49:18.453Z,8.24
2022-11-30T15:54:50.206Z,8.26
2022-11-30T16:00:13.669Z,8.22
2022-11-30T16:05:15.116Z,8.24
2022-11-30T16:10:21.761Z,8.24
2022-11-30T16:15:26.520Z,8.24
2022-11-30T16:20:28.061Z,8.23
2022-11-30T16:25:29.746Z,8.25
2022-11-30T16:30:31.334Z,8.26
2022-11-30T16:35:40.843Z,8.30
2022-11-30T16:40:42.335Z,8.27
2022-11-30T16:45:43.964Z,8.32
2022-11-30T16:50:45.687Z,8.37
2022-11-30T16:55:47.945Z,8.33
2022-11-30T17:00:49.597Z,8.33
2022-11-30T17:05:51.327Z,8.32
2022-11-30T17:10:54.002Z,8.33
2022-11-30T17:15:55.560Z,8.31
2022-11-30T17:20:57.135Z,8.26
2022-11-30T17:25:58.664Z,8.25
2022-11-30T17:31:00.264Z,8.25
2022-11-30T17:36:04.127Z,8.27
2022-11-30T17:41:07.483Z,8.26
2022-11-30T17:46:11.361Z,8.25
2022-11-30T17:51:13.011Z,8.22
2022-11-30T17:56:16.440Z,8.26
2022-11-30T18:01:23.648Z,8.26
2022-11-30T18:06:25.351Z,8.26
2022-11-30T18:11:26.850Z,8.27
2022-11-30T18:16:31.340Z,8.23
2022-11-30T18:21:33.089Z,8.23
2022-11-30T18:26:34.668Z,8.21
2022-11-30T18:31:36.222Z,8.26
2022-11-30T18:36:37.723Z,8.27
2022-11-30T18:41:39.266Z,8.25
2022-11-30T18:46:40.926Z,8.25
2022-11-30T18:51:42.539Z,8.22
2022-11-30T18:56:44.145Z,8.26
2022-11-30T19:01:45.880Z,8.32
2022-11-30T19:06:47.617Z,8.25
2022-11-30T19:11:49.437Z,8.26
2022-11-30T19:16:51.341Z,8.26
2022-11-30T19:21:52.977Z,8.26
2022-11-30T19:26:54.524Z,8.23
2022-11-30T19:31:56.114Z,8.24
2022-11-30T19:36:57.714Z,8.25
2022-11-30T19:41:59.424Z,8.21
2022-11-30T19:47:03.029Z,8.25
2022-11-30T19:52:04.801Z,8.24
2022-11-30T19:57:06.447Z,8.23
2022-11-30T20:02:09.899Z,8.21
2022-11-30T20:07:11.694Z,8.23
2022-11-30T20:12:13.430Z,8.24
2022-11-30T20:17:15.606Z,8.23
2022-11-30T20:22:19.778Z,8.20
2022-11-30T20:27:21.331Z,8.15
2022-11-30T20:32:24.235Z,8.20
2022-11-30T20:37:25.761Z,8.16
2022-11-30T20:42:27.323Z,8.16
2022-11-30T20:47:33.394Z,8.12
2022-11-30T20:52:36.510Z,8.08
2022-11-30T20:57:37.998Z,8.10
2022-11-30T21:02:39.582Z,8.03
2022-11-30T21:07:41.372Z,8.09
2022-11-30T21:12:43.001Z,8.05
2022-11-30T21:17:44.540Z,8.05
2022-11-30T21:22:46.092Z,8.06
2022-11-30T21:27:51.897Z,8.12
2022-11-30T21:32:53.447Z,8.08
2022-11-30T21:37:55.020Z,8.07
2022-11-30T21:42:56.603Z,8.05
2022-11-30T21:47:58.490Z,8.02
2022-11-30T21:52:59.963Z,8.01
2022-11-30T21:58:01.477Z,8.01
2022-11-30T22:03:03.337Z,7.98
2022-11-30T22:08:05.096Z,8.01
2022-11-30T22:13:06.679Z,8.05
2022-11-30T22:18:08.196Z,8.07
2022-11-30T22:23:09.732Z,8.04
2022-11-30T22:28:11.346Z,8.05
2022-11-30T22:33:12.880Z,8.04
2022-11-30T22:38:14.517Z,7.95
2022-11-30T22:43:16.082Z,7.97
2022-11-30T22:48:17.569Z,7.93
2022-11-30T22:53:19.078Z,7.95
2022-11-30T22:58:20.574Z,7.94
2022-11-30T23:03:26.806Z,7.93
2022-11-30T23:08:29.562Z,7.89
2022-11-30T23:13:31.204Z,7.91
2022-11-30T23:18:38.857Z,7.93
2022-11-30T23:23:42.080Z,7.89
2022-11-30T23:28:45.415Z,7.90
2022-11-30T23:33:47.299Z,7.90
2022-11-30T23:38:55.472Z,7.89
2022-11-30T23:43:57.237Z,7.89
2022-11-30T23:48:58.963Z,7.87
2022-11-30T23:54:00.531Z,7.80
2022-11-30T23:59:02.124Z,7.84
